sensor_id;sensor_type;location;lat;lon;timestamp;P1;durP1;ratioP1;P2;durP2;ratioP2
46507;SDS011;32223;53.654;10.014;2022-09-09T00:04:27;23.00;;;16.27;;
46507;SDS011;32223;53.654;10.014;2022-09-09T00:06:59;26.65;;;17.70;;
46507;SDS011;32223;53.654;10.014;2022-09-09T00:09:34;27.58;;;17.58;;
46507;SDS011;32223;53.654;10.014;2022-09-09T00:12:25;30.65;;;19.08;;
46507;SDS011;32223;53.654;10.014;2022-09-09T00:15:00;35.50;;;19.70;;
46507;SDS011;32223;53.654;10.014;2022-09-09T00:22:40;38.40;;;20.27;;
46507;SDS011;32223;53.654;10.014;2022-09-09T00:25:18;47.97;;;21.10;;
46507;SDS011;32223;53.654;10.014;2022-09-09T00:27:51;45.25;;;23.70;;
46507;SDS011;32223;53.654;10.014;2022-09-09T00:30:24;37.55;;;21.85;;
46507;SDS011;32223;53.654;10.014;2022-09-09T00:32:58;101.95;;;25.63;;
46507;SDS011;32223;53.654;10.014;2022-09-09T00:35:33;47.92;;;24.35;;
46507;SDS011;32223;53.654;10.014;2022-09-09T00:38:03;59.00;;;25.25;;
46507;SDS011;32223;53.654;10.014;2022-09-09T00:40:41;43.47;;;24.40;;
46507;SDS011;32223;53.654;10.014;2022-09-09T00:57:14;65.80;;;25.48;;
46507;SDS011;32223;53.654;10.014;2022-09-09T01:08:39;64.00;;;29.63;;
46507;SDS011;32223;53.654;10.014;2022-09-09T01:11:17;56.35;;;29.27;;
46507;SDS011;32223;53.654;10.014;2022-09-09T01:16:17;58.60;;;29.60;;
46507;SDS011;32223;53.654;10.014;2022-09-09T01:18:44;63.92;;;31.50;;
46507;SDS011;32223;53.654;10.014;2022-09-09T01:27:03;69.00;;;34.60;;
46507;SDS011;32223;53.654;10.014;2022-09-09T01:29:31;71.47;;;32.83;;
46507;SDS011;32223;53.654;10.014;2022-09-09T01:32:37;60.38;;;31.98;;
46507;SDS011;32223;53.654;10.014;2022-09-09T01:38:04;58.63;;;30.27;;
46507;SDS011;32223;53.654;10.014;2022-09-09T01:40:30;76.72;;;33.10;;
46507;SDS011;32223;53.654;10.014;2022-09-09T01:42:57;64.57;;;31.50;;
46507;SDS011;32223;53.654;10.014;2022-09-09T01:45:23;71.05;;;28.95;;
46507;SDS011;32223;53.654;10.014;2022-09-09T01:47:50;60.47;;;29.92;;
46507;SDS011;32223;53.654;10.014;2022-09-09T01:50:17;78.13;;;31.45;;
46507;SDS011;32223;53.654;10.014;2022-09-09T01:52:45;61.33;;;29.13;;
46507;SDS011;32223;53.654;10.014;2022-09-09T01:55:13;61.35;;;28.65;;
46507;SDS011;32223;53.654;10.014;2022-09-09T01:57:46;95.85;;;28.83;;
46507;SDS011;32223;53.654;10.014;2022-09-09T02:00:21;57.17;;;28.52;;
46507;SDS011;32223;53.654;10.014;2022-09-09T02:02:49;55.25;;;26.50;;
46507;SDS011;32223;53.654;10.014;2022-09-09T02:05:38;49.45;;;27.40;;
46507;SDS011;32223;53.654;10.014;2022-09-09T02:11:17;70.13;;;26.15;;
46507;SDS011;32223;53.654;10.014;2022-09-09T02:13:45;45.95;;;25.30;;
46507;SDS011;32223;53.654;10.014;2022-09-09T02:16:18;39.88;;;24.65;;
46507;SDS011;32223;53.654;10.014;2022-09-09T02:18:57;48.70;;;26.27;;
46507;SDS011;32223;53.654;10.014;2022-09-09T02:21:38;43.97;;;24.67;;
46507;SDS011;32223;53.654;10.014;2022-09-09T02:24:06;51.08;;;25.75;;
46507;SDS011;32223;53.654;10.014;2022-09-09T02:26:35;109.85;;;29.05;;
46507;SDS011;32223;53.654;10.014;2022-09-09T02:29:06;48.38;;;24.75;;
46507;SDS011;32223;53.654;10.014;2022-09-09T02:31:36;43.08;;;22.15;;
46507;SDS011;32223;53.654;10.014;2022-09-09T02:34:03;50.83;;;24.40;;
46507;SDS011;32223;53.654;10.014;2022-09-09T02:36:31;62.28;;;24.02;;
46507;SDS011;32223;53.654;10.014;2022-09-09T02:38:59;38.97;;;21.80;;
46507;SDS011;32223;53.654;10.014;2022-09-09T02:41:27;94.03;;;27.08;;
46507;SDS011;32223;53.654;10.014;2022-09-09T02:43:57;42.60;;;24.83;;
46507;SDS011;32223;53.654;10.014;2022-09-09T02:52:14;40.13;;;22.90;;
46507;SDS011;32223;53.654;10.014;2022-09-09T02:54:43;43.28;;;23.20;;
46507;SDS011;32223;53.654;10.014;2022-09-09T02:57:30;50.55;;;24.35;;
46507;SDS011;32223;53.654;10.014;2022-09-09T02:59:57;45.97;;;23.33;;
46507;SDS011;32223;53.654;10.014;2022-09-09T03:02:24;44.08;;;23.52;;
46507;SDS011;32223;53.654;10.014;2022-09-09T03:04:50;41.72;;;23.33;;
46507;SDS011;32223;53.654;10.014;2022-09-09T03:07:17;69.05;;;25.17;;
46507;SDS011;32223;53.654;10.014;2022-09-09T03:09:44;55.30;;;25.70;;
46507;SDS011;32223;53.654;10.014;2022-09-09T03:12:10;44.22;;;24.17;;
46507;SDS011;32223;53.654;10.014;2022-09-09T03:14:36;44.53;;;24.80;;
46507;SDS011;32223;53.654;10.014;2022-09-09T03:17:03;46.35;;;25.08;;
46507;SDS011;32223;53.654;10.014;2022-09-09T03:19:30;82.40;;;26.73;;
46507;SDS011;32223;53.654;10.014;2022-09-09T03:21:56;41.55;;;24.60;;
46507;SDS011;32223;53.654;10.014;2022-09-09T03:24:22;43.45;;;24.98;;
46507;SDS011;32223;53.654;10.014;2022-09-09T03:26:48;41.85;;;24.42;;
46507;SDS011;32223;53.654;10.014;2022-09-09T03:29:15;43.47;;;24.40;;
46507;SDS011;32223;53.654;10.014;2022-09-09T03:31:42;43.42;;;25.08;;
46507;SDS011;32223;53.654;10.014;2022-09-09T03:34:08;48.40;;;27.90;;
46507;SDS011;32223;53.654;10.014;2022-09-09T03:36:34;48.83;;;29.10;;
46507;SDS011;32223;53.654;10.014;2022-09-09T03:38:59;46.15;;;26.25;;
46507;SDS011;32223;53.654;10.014;2022-09-09T03:41:26;40.13;;;23.27;;
46507;SDS011;32223;53.654;10.014;2022-09-09T03:43:52;39.13;;;24.15;;
46507;SDS011;32223;53.654;10.014;2022-09-09T03:46:19;44.63;;;24.23;;
46507;SDS011;32223;53.654;10.014;2022-09-09T03:48:45;55.55;;;26.52;;
46507;SDS011;32223;53.654;10.014;2022-09-09T03:51:11;48.70;;;24.90;;
46507;SDS011;32223;53.654;10.014;2022-09-09T03:53:36;40.08;;;22.95;;
46507;SDS011;32223;53.654;10.014;2022-09-09T03:56:02;39.63;;;22.67;;
46507;SDS011;32223;53.654;10.014;2022-09-09T03:58:29;44.42;;;24.00;;
46507;SDS011;32223;53.654;10.014;2022-09-09T04:00:59;38.35;;;21.85;;
46507;SDS011;32223;53.654;10.014;2022-09-09T04:03:26;42.92;;;24.27;;
46507;SDS011;32223;53.654;10.014;2022-09-09T04:05:52;33.90;;;22.23;;
46507;SDS011;32223;53.654;10.014;2022-09-09T04:08:18;48.42;;;25.42;;
46507;SDS011;32223;53.654;10.014;2022-09-09T04:10:46;42.03;;;23.58;;
46507;SDS011;32223;53.654;10.014;2022-09-09T04:13:13;37.92;;;22.48;;
46507;SDS011;32223;53.654;10.014;2022-09-09T04:15:41;38.08;;;21.35;;
46507;SDS011;32223;53.654;10.014;2022-09-09T04:18:07;50.30;;;30.75;;
46507;SDS011;32223;53.654;10.014;2022-09-09T04:20:33;55.55;;;32.50;;
46507;SDS011;32223;53.654;10.014;2022-09-09T04:22:59;41.90;;;22.58;;
46507;SDS011;32223;53.654;10.014;2022-09-09T04:25:24;37.80;;;22.05;;
46507;SDS011;32223;53.654;10.014;2022-09-09T04:27:54;40.53;;;22.23;;
46507;SDS011;32223;53.654;10.014;2022-09-09T04:30:20;39.35;;;21.92;;
46507;SDS011;32223;53.654;10.014;2022-09-09T04:32:46;40.28;;;23.15;;
46507;SDS011;32223;53.654;10.014;2022-09-09T04:35:12;37.45;;;20.33;;
46507;SDS011;32223;53.654;10.014;2022-09-09T04:37:37;33.65;;;20.45;;
46507;SDS011;32223;53.654;10.014;2022-09-09T04:40:03;38.90;;;19.80;;
46507;SDS011;32223;53.654;10.014;2022-09-09T04:42:29;33.35;;;19.77;;
46507;SDS011;32223;53.654;10.014;2022-09-09T04:44:55;36.47;;;20.55;;
46507;SDS011;32223;53.654;10.014;2022-09-09T04:47:20;35.72;;;20.55;;
46507;SDS011;32223;53.654;10.014;2022-09-09T04:49:46;33.42;;;20.73;;
46507;SDS011;32223;53.654;10.014;2022-09-09T04:52:12;34.22;;;21.27;;
46507;SDS011;32223;53.654;10.014;2022-09-09T04:54:38;35.35;;;20.98;;
46507;SDS011;32223;53.654;10.014;2022-09-09T04:57:04;35.47;;;20.13;;
46507;SDS011;32223;53.654;10.014;2022-09-09T04:59:30;28.60;;;18.02;;
46507;SDS011;32223;53.654;10.014;2022-09-09T05:01:55;28.77;;;17.73;;
46507;SDS011;32223;53.654;10.014;2022-09-09T05:04:21;29.15;;;17.25;;
46507;SDS011;32223;53.654;10.014;2022-09-09T05:06:47;27.05;;;17.52;;
46507;SDS011;32223;53.654;10.014;2022-09-09T05:09:13;28.05;;;16.05;;
46507;SDS011;32223;53.654;10.014;2022-09-09T05:11:38;26.92;;;16.75;;
46507;SDS011;32223;53.654;10.014;2022-09-09T05:14:04;24.42;;;16.10;;
46507;SDS011;32223;53.654;10.014;2022-09-09T05:16:30;22.25;;;14.45;;
46507;SDS011;32223;53.654;10.014;2022-09-09T05:18:56;21.83;;;14.98;;
46507;SDS011;32223;53.654;10.014;2022-09-09T05:21:22;25.23;;;15.15;;
46507;SDS011;32223;53.654;10.014;2022-09-09T05:23:51;23.65;;;14.82;;
46507;SDS011;32223;53.654;10.014;2022-09-09T05:26:17;23.25;;;14.98;;
46507;SDS011;32223;53.654;10.014;2022-09-09T05:28:45;18.92;;;13.07;;
46507;SDS011;32223;53.654;10.014;2022-09-09T05:31:13;19.92;;;13.10;;
46507;SDS011;32223;53.654;10.014;2022-09-09T05:33:41;23.02;;;13.73;;
46507;SDS011;32223;53.654;10.014;2022-09-09T05:36:09;21.17;;;13.75;;
46507;SDS011;32223;53.654;10.014;2022-09-09T05:38:38;20.60;;;12.57;;
46507;SDS011;32223;53.654;10.014;2022-09-09T05:41:05;19.98;;;12.57;;
46507;SDS011;32223;53.654;10.014;2022-09-09T05:43:32;20.77;;;13.55;;
46507;SDS011;32223;53.654;10.014;2022-09-09T05:46:09;17.60;;;12.90;;
46507;SDS011;32223;53.654;10.014;2022-09-09T05:48:37;17.33;;;11.48;;
46507;SDS011;32223;53.654;10.014;2022-09-09T05:51:04;19.10;;;12.52;;
46507;SDS011;32223;53.654;10.014;2022-09-09T05:53:32;18.00;;;12.10;;
46507;SDS011;32223;53.654;10.014;2022-09-09T05:56:06;17.15;;;11.18;;
46507;SDS011;32223;53.654;10.014;2022-09-09T05:58:36;17.40;;;10.68;;
46507;SDS011;32223;53.654;10.014;2022-09-09T06:01:06;17.75;;;12.60;;
46507;SDS011;32223;53.654;10.014;2022-09-09T06:03:37;19.60;;;13.07;;
46507;SDS011;32223;53.654;10.014;2022-09-09T06:06:05;18.30;;;11.40;;
46507;SDS011;32223;53.654;10.014;2022-09-09T06:08:33;17.00;;;11.90;;
46507;SDS011;32223;53.654;10.014;2022-09-09T06:11:03;15.75;;;11.70;;
46507;SDS011;32223;53.654;10.014;2022-09-09T06:13:29;15.52;;;11.07;;
46507;SDS011;32223;53.654;10.014;2022-09-09T06:15:55;19.02;;;11.88;;
46507;SDS011;32223;53.654;10.014;2022-09-09T06:18:21;17.50;;;10.75;;
46507;SDS011;32223;53.654;10.014;2022-09-09T06:20:57;16.45;;;11.50;;
46507;SDS011;32223;53.654;10.014;2022-09-09T06:23:24;18.00;;;11.88;;
46507;SDS011;32223;53.654;10.014;2022-09-09T06:25:50;16.67;;;11.68;;
46507;SDS011;32223;53.654;10.014;2022-09-09T06:28:16;16.33;;;11.35;;
46507;SDS011;32223;53.654;10.014;2022-09-09T06:30:43;16.40;;;10.70;;
46507;SDS011;32223;53.654;10.014;2022-09-09T06:33:09;16.23;;;11.00;;
46507;SDS011;32223;53.654;10.014;2022-09-09T06:35:35;16.25;;;10.10;;
46507;SDS011;32223;53.654;10.014;2022-09-09T06:38:01;12.88;;;9.38;;
46507;SDS011;32223;53.654;10.014;2022-09-09T06:40:26;15.43;;;9.52;;
46507;SDS011;32223;53.654;10.014;2022-09-09T06:42:52;16.27;;;9.52;;
46507;SDS011;32223;53.654;10.014;2022-09-09T06:45:18;17.30;;;9.75;;
46507;SDS011;32223;53.654;10.014;2022-09-09T06:47:43;15.27;;;9.88;;
46507;SDS011;32223;53.654;10.014;2022-09-09T06:50:09;11.73;;;9.35;;
46507;SDS011;32223;53.654;10.014;2022-09-09T06:52:36;13.23;;;9.57;;
46507;SDS011;32223;53.654;10.014;2022-09-09T06:55:01;12.07;;;8.52;;
46507;SDS011;32223;53.654;10.014;2022-09-09T06:57:28;13.50;;;9.07;;
46507;SDS011;32223;53.654;10.014;2022-09-09T06:59:53;18.70;;;9.05;;
46507;SDS011;32223;53.654;10.014;2022-09-09T07:02:19;10.43;;;7.68;;
46507;SDS011;32223;53.654;10.014;2022-09-09T07:04:45;12.23;;;8.25;;
46507;SDS011;32223;53.654;10.014;2022-09-09T07:07:10;11.50;;;8.52;;
46507;SDS011;32223;53.654;10.014;2022-09-09T07:09:38;9.82;;;7.95;;
46507;SDS011;32223;53.654;10.014;2022-09-09T07:12:05;10.02;;;7.68;;
46507;SDS011;32223;53.654;10.014;2022-09-09T07:14:31;12.05;;;7.88;;
46507;SDS011;32223;53.654;10.014;2022-09-09T07:16:58;9.13;;;7.45;;
46507;SDS011;32223;53.654;10.014;2022-09-09T07:19:25;10.85;;;8.07;;
46507;SDS011;32223;53.654;10.014;2022-09-09T07:21:50;14.93;;;9.43;;
46507;SDS011;32223;53.654;10.014;2022-09-09T07:24:16;15.70;;;11.45;;
46507;SDS011;32223;53.654;10.014;2022-09-09T07:26:42;8.18;;;7.10;;
46507;SDS011;32223;53.654;10.014;2022-09-09T07:29:09;9.98;;;6.50;;
46507;SDS011;32223;53.654;10.014;2022-09-09T07:31:35;8.50;;;6.03;;
46507;SDS011;32223;53.654;10.014;2022-09-09T07:34:03;7.57;;;6.13;;
46507;SDS011;32223;53.654;10.014;2022-09-09T07:36:31;9.82;;;5.65;;
46507;SDS011;32223;53.654;10.014;2022-09-09T07:38:59;7.60;;;5.90;;
46507;SDS011;32223;53.654;10.014;2022-09-09T07:41:31;10.63;;;4.97;;
46507;SDS011;32223;53.654;10.014;2022-09-09T07:44:08;7.78;;;5.35;;
46507;SDS011;32223;53.654;10.014;2022-09-09T07:46:35;7.17;;;5.00;;
46507;SDS011;32223;53.654;10.014;2022-09-09T07:49:01;10.43;;;5.13;;
46507;SDS011;32223;53.654;10.014;2022-09-09T07:51:29;13.52;;;5.72;;
46507;SDS011;32223;53.654;10.014;2022-09-09T07:54:03;7.25;;;5.13;;
46507;SDS011;32223;53.654;10.014;2022-09-09T07:56:34;8.57;;;6.28;;
46507;SDS011;32223;53.654;10.014;2022-09-09T07:59:02;7.82;;;4.35;;
46507;SDS011;32223;53.654;10.014;2022-09-09T08:01:38;7.00;;;4.30;;
46507;SDS011;32223;53.654;10.014;2022-09-09T08:04:16;9.43;;;4.80;;
46507;SDS011;32223;53.654;10.014;2022-09-09T08:06:44;7.10;;;4.68;;
46507;SDS011;32223;53.654;10.014;2022-09-09T08:09:14;5.45;;;3.85;;
46507;SDS011;32223;53.654;10.014;2022-09-09T08:11:40;6.93;;;4.10;;
46507;SDS011;32223;53.654;10.014;2022-09-09T08:14:07;4.40;;;2.95;;
46507;SDS011;32223;53.654;10.014;2022-09-09T08:16:33;3.65;;;2.65;;
46507;SDS011;32223;53.654;10.014;2022-09-09T08:19:01;4.75;;;2.30;;
46507;SDS011;32223;53.654;10.014;2022-09-09T08:21:28;3.55;;;2.35;;
46507;SDS011;32223;53.654;10.014;2022-09-09T08:23:57;6.47;;;3.10;;
46507;SDS011;32223;53.654;10.014;2022-09-09T08:26:25;8.15;;;3.13;;
46507;SDS011;32223;53.654;10.014;2022-09-09T08:28:56;4.28;;;2.58;;
46507;SDS011;32223;53.654;10.014;2022-09-09T08:31:27;4.75;;;2.65;;
46507;SDS011;32223;53.654;10.014;2022-09-09T08:33:55;5.25;;;2.80;;
46507;SDS011;32223;53.654;10.014;2022-09-09T08:36:25;6.60;;;3.13;;
46507;SDS011;32223;53.654;10.014;2022-09-09T08:38:52;7.15;;;5.38;;
46507;SDS011;32223;53.654;10.014;2022-09-09T08:43:51;3.65;;;2.28;;
46507;SDS011;32223;53.654;10.014;2022-09-09T08:52:19;4.10;;;2.53;;
46507;SDS011;32223;53.654;10.014;2022-09-09T08:54:50;5.43;;;2.60;;
46507;SDS011;32223;53.654;10.014;2022-09-09T08:57:21;5.55;;;3.00;;
46507;SDS011;32223;53.654;10.014;2022-09-09T08:59:51;6.00;;;2.40;;
46507;SDS011;32223;53.654;10.014;2022-09-09T09:02:27;5.63;;;2.90;;
46507;SDS011;32223;53.654;10.014;2022-09-09T09:13:01;5.07;;;3.17;;
46507;SDS011;32223;53.654;10.014;2022-09-09T09:15:31;5.82;;;3.28;;
46507;SDS011;32223;53.654;10.014;2022-09-09T09:18:03;5.70;;;2.67;;
46507;SDS011;32223;53.654;10.014;2022-09-09T09:23:25;4.93;;;3.45;;
46507;SDS011;32223;53.654;10.014;2022-09-09T09:25:56;7.03;;;2.90;;
46507;SDS011;32223;53.654;10.014;2022-09-09T09:28:27;5.93;;;3.17;;
46507;SDS011;32223;53.654;10.014;2022-09-09T09:33:25;6.13;;;2.95;;
46507;SDS011;32223;53.654;10.014;2022-09-09T09:36:11;6.75;;;3.03;;
46507;SDS011;32223;53.654;10.014;2022-09-09T09:38:40;7.70;;;3.05;;
46507;SDS011;32223;53.654;10.014;2022-09-09T09:41:38;5.85;;;2.70;;
46507;SDS011;32223;53.654;10.014;2022-09-09T09:44:18;5.97;;;2.00;;
46507;SDS011;32223;53.654;10.014;2022-09-09T09:46:48;3.58;;;1.27;;
46507;SDS011;32223;53.654;10.014;2022-09-09T09:49:14;5.68;;;2.08;;
46507;SDS011;32223;53.654;10.014;2022-09-09T09:51:40;3.00;;;2.08;;
46507;SDS011;32223;53.654;10.014;2022-09-09T09:56:54;3.42;;;2.42;;
46507;SDS011;32223;53.654;10.014;2022-09-09T09:59:21;6.03;;;2.85;;
46507;SDS011;32223;53.654;10.014;2022-09-09T10:01:53;4.45;;;2.30;;
46507;SDS011;32223;53.654;10.014;2022-09-09T10:04:20;5.72;;;3.63;;
46507;SDS011;32223;53.654;10.014;2022-09-09T10:06:48;6.88;;;3.25;;
46507;SDS011;32223;53.654;10.014;2022-09-09T10:09:20;4.95;;;2.50;;
46507;SDS011;32223;53.654;10.014;2022-09-09T10:11:55;8.32;;;2.45;;
46507;SDS011;32223;53.654;10.014;2022-09-09T10:22:39;5.28;;;1.70;;
46507;SDS011;32223;53.654;10.014;2022-09-09T10:25:32;4.82;;;2.08;;
46507;SDS011;32223;53.654;10.014;2022-09-09T10:28:26;5.15;;;1.70;;
46507;SDS011;32223;53.654;10.014;2022-09-09T10:36:17;3.33;;;1.20;;
46507;SDS011;32223;53.654;10.014;2022-09-09T10:50:01;3.78;;;1.20;;
46507;SDS011;32223;53.654;10.014;2022-09-09T10:52:44;62.08;;;29.85;;
46507;SDS011;32223;53.654;10.014;2022-09-09T10:55:39;5.78;;;2.42;;
46507;SDS011;32223;53.654;10.014;2022-09-09T10:58:09;5.00;;;1.40;;
46507;SDS011;32223;53.654;10.014;2022-09-09T11:00:50;4.80;;;1.52;;
46507;SDS011;32223;53.654;10.014;2022-09-09T11:03:24;3.67;;;1.10;;
46507;SDS011;32223;53.654;10.014;2022-09-09T11:06:02;3.58;;;1.15;;
46507;SDS011;32223;53.654;10.014;2022-09-09T11:08:32;5.68;;;1.10;;
46507;SDS011;32223;53.654;10.014;2022-09-09T11:11:04;3.10;;;1.50;;
46507;SDS011;32223;53.654;10.014;2022-09-09T11:16:36;4.78;;;1.88;;
46507;SDS011;32223;53.654;10.014;2022-09-09T11:32:30;3.13;;;1.17;;
46507;SDS011;32223;53.654;10.014;2022-09-09T11:40:40;5.45;;;1.67;;
46507;SDS011;32223;53.654;10.014;2022-09-09T11:45:52;2.65;;;1.10;;
46507;SDS011;32223;53.654;10.014;2022-09-09T11:48:32;3.15;;;0.90;;
46507;SDS011;32223;53.654;10.014;2022-09-09T11:51:11;5.28;;;1.25;;
46507;SDS011;32223;53.654;10.014;2022-09-09T11:53:58;6.53;;;1.80;;
46507;SDS011;32223;53.654;10.014;2022-09-09T11:56:33;3.95;;;1.90;;
46507;SDS011;32223;53.654;10.014;2022-09-09T12:02:00;1.67;;;0.95;;
46507;SDS011;32223;53.654;10.014;2022-09-09T12:07:52;4.57;;;1.50;;
46507;SDS011;32223;53.654;10.014;2022-09-09T12:10:25;2.28;;;0.90;;
46507;SDS011;32223;53.654;10.014;2022-09-09T12:12:54;4.18;;;1.40;;
46507;SDS011;32223;53.654;10.014;2022-09-09T12:15:21;3.00;;;1.00;;
46507;SDS011;32223;53.654;10.014;2022-09-09T12:17:51;4.25;;;0.93;;
46507;SDS011;32223;53.654;10.014;2022-09-09T12:20:22;2.80;;;1.05;;
46507;SDS011;32223;53.654;10.014;2022-09-09T12:31:26;2.53;;;0.88;;
46507;SDS011;32223;53.654;10.014;2022-09-09T12:39:55;4.13;;;1.67;;
46507;SDS011;32223;53.654;10.014;2022-09-09T12:42:25;2.30;;;0.90;;
46507;SDS011;32223;53.654;10.014;2022-09-09T12:47:26;4.82;;;1.20;;
46507;SDS011;32223;53.654;10.014;2022-09-09T12:50:02;3.78;;;1.17;;
46507;SDS011;32223;53.654;10.014;2022-09-09T12:52:32;2.60;;;1.30;;
46507;SDS011;32223;53.654;10.014;2022-09-09T12:55:03;3.00;;;1.15;;
46507;SDS011;32223;53.654;10.014;2022-09-09T12:57:36;3.90;;;1.50;;
46507;SDS011;32223;53.654;10.014;2022-09-09T13:00:07;3.03;;;1.00;;
46507;SDS011;32223;53.654;10.014;2022-09-09T13:02:45;4.95;;;1.23;;
46507;SDS011;32223;53.654;10.014;2022-09-09T13:05:13;2.15;;;1.17;;
46507;SDS011;32223;53.654;10.014;2022-09-09T13:07:41;4.80;;;1.35;;
46507;SDS011;32223;53.654;10.014;2022-09-09T13:10:10;2.67;;;1.17;;
46507;SDS011;32223;53.654;10.014;2022-09-09T13:12:37;9.73;;;1.85;;
46507;SDS011;32223;53.654;10.014;2022-09-09T13:15:03;4.35;;;1.63;;
46507;SDS011;32223;53.654;10.014;2022-09-09T13:17:36;4.65;;;2.35;;
46507;SDS011;32223;53.654;10.014;2022-09-09T13:20:02;5.85;;;2.50;;
46507;SDS011;32223;53.654;10.014;2022-09-09T13:22:30;5.13;;;2.47;;
46507;SDS011;32223;53.654;10.014;2022-09-09T13:25:18;5.40;;;2.38;;
46507;SDS011;32223;53.654;10.014;2022-09-09T13:27:54;6.43;;;2.88;;
46507;SDS011;32223;53.654;10.014;2022-09-09T13:30:25;8.05;;;2.60;;
46507;SDS011;32223;53.654;10.014;2022-09-09T13:33:29;3.95;;;2.10;;
46507;SDS011;32223;53.654;10.014;2022-09-09T13:35:49;5.28;;;2.50;;
46507;SDS011;32223;53.654;10.014;2022-09-09T13:38:18;5.63;;;2.70;;
46507;SDS011;32223;53.654;10.014;2022-09-09T13:40:57;6.80;;;2.45;;
46507;SDS011;32223;53.654;10.014;2022-09-09T13:43:26;7.05;;;3.13;;
46507;SDS011;32223;53.654;10.014;2022-09-09T13:45:54;20.13;;;14.13;;
46507;SDS011;32223;53.654;10.014;2022-09-09T13:48:25;8.32;;;3.40;;
46507;SDS011;32223;53.654;10.014;2022-09-09T13:53:51;5.00;;;2.60;;
46507;SDS011;32223;53.654;10.014;2022-09-09T13:56:17;5.93;;;2.90;;
46507;SDS011;32223;53.654;10.014;2022-09-09T13:58:43;6.75;;;2.97;;
46507;SDS011;32223;53.654;10.014;2022-09-09T14:01:08;5.13;;;2.95;;
46507;SDS011;32223;53.654;10.014;2022-09-09T14:03:35;5.93;;;2.97;;
46507;SDS011;32223;53.654;10.014;2022-09-09T14:06:00;6.25;;;2.83;;
46507;SDS011;32223;53.654;10.014;2022-09-09T14:08:26;6.43;;;2.65;;
46507;SDS011;32223;53.654;10.014;2022-09-09T14:10:54;6.55;;;3.00;;
46507;SDS011;32223;53.654;10.014;2022-09-09T14:13:22;5.15;;;2.60;;
46507;SDS011;32223;53.654;10.014;2022-09-09T14:15:48;5.50;;;2.88;;
46507;SDS011;32223;53.654;10.014;2022-09-09T14:18:14;8.23;;;3.30;;
46507;SDS011;32223;53.654;10.014;2022-09-09T14:20:39;7.82;;;3.47;;
46507;SDS011;32223;53.654;10.014;2022-09-09T14:23:05;6.55;;;2.72;;
46507;SDS011;32223;53.654;10.014;2022-09-09T14:25:31;5.25;;;2.80;;
46507;SDS011;32223;53.654;10.014;2022-09-09T14:27:58;7.75;;;2.70;;
46507;SDS011;32223;53.654;10.014;2022-09-09T14:30:24;5.45;;;2.90;;
46507;SDS011;32223;53.654;10.014;2022-09-09T14:32:49;6.10;;;2.75;;
46507;SDS011;32223;53.654;10.014;2022-09-09T14:35:15;8.80;;;5.38;;
46507;SDS011;32223;53.654;10.014;2022-09-09T14:37:42;6.30;;;3.40;;
46507;SDS011;32223;53.654;10.014;2022-09-09T14:40:08;7.40;;;3.20;;
46507;SDS011;32223;53.654;10.014;2022-09-09T14:42:34;5.20;;;3.70;;
46507;SDS011;32223;53.654;10.014;2022-09-09T14:44:59;4.18;;;3.10;;
46507;SDS011;32223;53.654;10.014;2022-09-09T14:47:25;4.80;;;3.05;;
46507;SDS011;32223;53.654;10.014;2022-09-09T14:49:51;7.88;;;3.55;;
46507;SDS011;32223;53.654;10.014;2022-09-09T14:52:16;6.25;;;2.97;;
46507;SDS011;32223;53.654;10.014;2022-09-09T14:54:42;6.50;;;4.65;;
46507;SDS011;32223;53.654;10.014;2022-09-09T14:57:08;6.95;;;3.08;;
46507;SDS011;32223;53.654;10.014;2022-09-09T14:59:33;4.40;;;3.28;;
46507;SDS011;32223;53.654;10.014;2022-09-09T15:01:59;4.13;;;3.05;;
46507;SDS011;32223;53.654;10.014;2022-09-09T15:04:29;5.18;;;3.50;;
46507;SDS011;32223;53.654;10.014;2022-09-09T15:06:54;6.45;;;3.83;;
46507;SDS011;32223;53.654;10.014;2022-09-09T15:09:20;6.55;;;3.35;;
46507;SDS011;32223;53.654;10.014;2022-09-09T15:11:45;11.35;;;6.20;;
46507;SDS011;32223;53.654;10.014;2022-09-09T15:14:11;6.13;;;4.25;;
46507;SDS011;32223;53.654;10.014;2022-09-09T15:16:37;6.90;;;3.63;;
46507;SDS011;32223;53.654;10.014;2022-09-09T15:19:03;8.43;;;3.92;;
46507;SDS011;32223;53.654;10.014;2022-09-09T15:21:30;6.78;;;3.50;;
46507;SDS011;32223;53.654;10.014;2022-09-09T15:23:58;6.35;;;3.42;;
46507;SDS011;32223;53.654;10.014;2022-09-09T15:26:24;8.02;;;3.47;;
46507;SDS011;32223;53.654;10.014;2022-09-09T15:28:52;4.75;;;3.03;;
46507;SDS011;32223;53.654;10.014;2022-09-09T15:31:19;5.47;;;3.15;;
46507;SDS011;32223;53.654;10.014;2022-09-09T15:33:49;5.80;;;3.28;;
46507;SDS011;32223;53.654;10.014;2022-09-09T15:36:16;5.10;;;2.50;;
46507;SDS011;32223;53.654;10.014;2022-09-09T15:38:53;5.53;;;2.28;;
46507;SDS011;32223;53.654;10.014;2022-09-09T15:41:20;7.15;;;2.72;;
46507;SDS011;32223;53.654;10.014;2022-09-09T15:43:47;4.60;;;2.20;;
46507;SDS011;32223;53.654;10.014;2022-09-09T15:48:55;3.58;;;1.90;;
46507;SDS011;32223;53.654;10.014;2022-09-09T15:51:23;4.55;;;2.20;;
46507;SDS011;32223;53.654;10.014;2022-09-09T15:53:56;7.03;;;2.38;;
46507;SDS011;32223;53.654;10.014;2022-09-09T15:56:24;4.90;;;2.38;;
46507;SDS011;32223;53.654;10.014;2022-09-09T15:58:52;3.20;;;2.00;;
46507;SDS011;32223;53.654;10.014;2022-09-09T16:01:18;4.80;;;1.77;;
46507;SDS011;32223;53.654;10.014;2022-09-09T16:03:44;3.08;;;1.67;;
46507;SDS011;32223;53.654;10.014;2022-09-09T16:06:15;4.90;;;2.35;;
46507;SDS011;32223;53.654;10.014;2022-09-09T16:08:43;4.13;;;1.92;;
46507;SDS011;32223;53.654;10.014;2022-09-09T16:11:15;3.28;;;1.70;;
46507;SDS011;32223;53.654;10.014;2022-09-09T16:13:44;4.05;;;1.70;;
46507;SDS011;32223;53.654;10.014;2022-09-09T16:16:11;3.45;;;1.48;;
46507;SDS011;32223;53.654;10.014;2022-09-09T16:18:42;2.38;;;1.40;;
46507;SDS011;32223;53.654;10.014;2022-09-09T16:21:12;4.88;;;1.70;;
46507;SDS011;32223;53.654;10.014;2022-09-09T16:23:43;3.55;;;1.30;;
46507;SDS011;32223;53.654;10.014;2022-09-09T16:26:13;4.70;;;1.25;;
46507;SDS011;32223;53.654;10.014;2022-09-09T16:28:40;2.25;;;1.00;;
46507;SDS011;32223;53.654;10.014;2022-09-09T16:31:07;3.50;;;1.73;;
46507;SDS011;32223;53.654;10.014;2022-09-09T16:33:35;3.47;;;1.25;;
46507;SDS011;32223;53.654;10.014;2022-09-09T16:36:07;5.75;;;1.80;;
46507;SDS011;32223;53.654;10.014;2022-09-09T16:38:35;3.20;;;1.63;;
46507;SDS011;32223;53.654;10.014;2022-09-09T16:41:02;2.97;;;1.45;;
46507;SDS011;32223;53.654;10.014;2022-09-09T16:43:30;4.55;;;1.30;;
46507;SDS011;32223;53.654;10.014;2022-09-09T16:45:56;6.30;;;1.83;;
46507;SDS011;32223;53.654;10.014;2022-09-09T16:48:22;4.85;;;1.60;;
46507;SDS011;32223;53.654;10.014;2022-09-09T16:50:48;4.10;;;1.73;;
46507;SDS011;32223;53.654;10.014;2022-09-09T16:53:13;3.63;;;1.30;;
46507;SDS011;32223;53.654;10.014;2022-09-09T16:55:40;2.22;;;1.30;;
46507;SDS011;32223;53.654;10.014;2022-09-09T16:58:07;4.68;;;1.58;;
46507;SDS011;32223;53.654;10.014;2022-09-09T17:00:35;5.28;;;1.55;;
46507;SDS011;32223;53.654;10.014;2022-09-09T17:03:01;5.03;;;1.50;;
46507;SDS011;32223;53.654;10.014;2022-09-09T17:05:28;4.15;;;1.98;;
46507;SDS011;32223;53.654;10.014;2022-09-09T17:07:54;5.40;;;1.90;;
46507;SDS011;32223;53.654;10.014;2022-09-09T17:10:24;3.25;;;1.70;;